sensor_id;sensor_type;location;lat;lon;timestamp;P1;durP1;ratioP1;P2;durP2;ratioP2
74995;SDS011;63545;51.690;5.202;2022-11-09T00:00:27;13.30;;;2.90;;
74995;SDS011;63545;51.690;5.202;2022-11-09T00:02:53;11.53;;;2.50;;
74995;SDS011;63545;51.690;5.202;2022-11-09T00:05:19;8.10;;;2.20;;
74995;SDS011;63545;51.690;5.202;2022-11-09T00:07:44;10.13;;;2.40;;
74995;SDS011;63545;51.690;5.202;2022-11-09T00:10:09;7.30;;;2.10;;
74995;SDS011;63545;51.690;5.202;2022-11-09T00:12:35;11.07;;;2.87;;
74995;SDS011;63545;51.690;5.202;2022-11-09T00:15:00;8.50;;;2.33;;
74995;SDS011;63545;51.690;5.202;2022-11-09T00:17:26;11.97;;;2.57;;
74995;SDS011;63545;51.690;5.202;2022-11-09T00:19:51;12.23;;;3.08;;
74995;SDS011;63545;51.690;5.202;2022-11-09T00:22:16;10.73;;;2.30;;
74995;SDS011;63545;51.690;5.202;2022-11-09T00:24:42;14.77;;;2.97;;
74995;SDS011;63545;51.690;5.202;2022-11-09T00:27:07;10.00;;;2.10;;
74995;SDS011;63545;51.690;5.202;2022-11-09T00:29:32;10.70;;;2.10;;
74995;SDS011;63545;51.690;5.202;2022-11-09T00:31:58;6.50;;;1.70;;
74995;SDS011;63545;51.690;5.202;2022-11-09T00:34:23;9.17;;;2.43;;
74995;SDS011;63545;51.690;5.202;2022-11-09T00:36:48;8.33;;;2.00;;
74995;SDS011;63545;51.690;5.202;2022-11-09T00:39:14;16.37;;;2.43;;
74995;SDS011;63545;51.690;5.202;2022-11-09T00:41:39;9.87;;;2.63;;
74995;SDS011;63545;51.690;5.202;2022-11-09T00:44:04;12.17;;;2.37;;
74995;SDS011;63545;51.690;5.202;2022-11-09T00:46:30;11.67;;;2.30;;
74995;SDS011;63545;51.690;5.202;2022-11-09T00:48:55;8.63;;;2.38;;
74995;SDS011;63545;51.690;5.202;2022-11-09T00:51:21;11.50;;;2.50;;
74995;SDS011;63545;51.690;5.202;2022-11-09T00:53:46;9.37;;;2.00;;
74995;SDS011;63545;51.690;5.202;2022-11-09T00:56:18;7.22;;;2.10;;
74995;SDS011;63545;51.690;5.202;2022-11-09T00:58:43;7.57;;;2.00;;
74995;SDS011;63545;51.690;5.202;2022-11-09T01:01:10;9.43;;;2.27;;
74995;SDS011;63545;51.690;5.202;2022-11-09T01:03:37;9.38;;;2.25;;
74995;SDS011;63545;51.690;5.202;2022-11-09T01:06:03;9.52;;;2.50;;
74995;SDS011;63545;51.690;5.202;2022-11-09T01:08:28;8.17;;;1.93;;
74995;SDS011;63545;51.690;5.202;2022-11-09T01:10:54;5.90;;;2.00;;
74995;SDS011;63545;51.690;5.202;2022-11-09T01:13:19;10.32;;;2.42;;
74995;SDS011;63545;51.690;5.202;2022-11-09T01:15:48;6.90;;;2.40;;
74995;SDS011;63545;51.690;5.202;2022-11-09T01:18:16;10.23;;;3.13;;
74995;SDS011;63545;51.690;5.202;2022-11-09T01:20:43;8.57;;;2.42;;
74995;SDS011;63545;51.690;5.202;2022-11-09T01:23:10;8.80;;;2.70;;
74995;SDS011;63545;51.690;5.202;2022-11-09T01:25:36;8.38;;;2.78;;
74995;SDS011;63545;51.690;5.202;2022-11-09T01:28:02;5.87;;;2.90;;
74995;SDS011;63545;51.690;5.202;2022-11-09T01:30:28;11.68;;;3.00;;
74995;SDS011;63545;51.690;5.202;2022-11-09T01:32:54;8.25;;;3.10;;
74995;SDS011;63545;51.690;5.202;2022-11-09T01:35:19;10.53;;;3.30;;
74995;SDS011;63545;51.690;5.202;2022-11-09T01:37:44;11.13;;;3.67;;
74995;SDS011;63545;51.690;5.202;2022-11-09T01:40:10;8.00;;;3.07;;
74995;SDS011;63545;51.690;5.202;2022-11-09T01:42:38;11.95;;;3.13;;
74995;SDS011;63545;51.690;5.202;2022-11-09T01:47:41;11.90;;;3.25;;
74995;SDS011;63545;51.690;5.202;2022-11-09T01:50:08;10.13;;;2.70;;
74995;SDS011;63545;51.690;5.202;2022-11-09T01:52:35;10.07;;;2.58;;
74995;SDS011;63545;51.690;5.202;2022-11-09T01:55:04;18.63;;;3.40;;
74995;SDS011;63545;51.690;5.202;2022-11-09T01:57:35;6.72;;;2.63;;
74995;SDS011;63545;51.690;5.202;2022-11-09T02:00:05;10.30;;;2.63;;
74995;SDS011;63545;51.690;5.202;2022-11-09T02:02:32;10.07;;;2.57;;
74995;SDS011;63545;51.690;5.202;2022-11-09T02:05:07;12.27;;;2.75;;
74995;SDS011;63545;51.690;5.202;2022-11-09T02:07:36;11.85;;;2.60;;
74995;SDS011;63545;51.690;5.202;2022-11-09T02:10:23;10.15;;;2.60;;
74995;SDS011;63545;51.690;5.202;2022-11-09T02:12:51;8.95;;;2.40;;
74995;SDS011;63545;51.690;5.202;2022-11-09T02:15:18;9.27;;;2.30;;
74995;SDS011;63545;51.690;5.202;2022-11-09T02:17:45;16.02;;;2.67;;
74995;SDS011;63545;51.690;5.202;2022-11-09T02:20:13;8.17;;;2.30;;
74995;SDS011;63545;51.690;5.202;2022-11-09T02:22:39;13.27;;;2.95;;
74995;SDS011;63545;51.690;5.202;2022-11-09T02:25:05;14.57;;;2.65;;
74995;SDS011;63545;51.690;5.202;2022-11-09T02:27:32;9.63;;;2.50;;
74995;SDS011;63545;51.690;5.202;2022-11-09T02:29:57;10.50;;;2.63;;
74995;SDS011;63545;51.690;5.202;2022-11-09T02:32:23;9.23;;;2.30;;
74995;SDS011;63545;51.690;5.202;2022-11-09T02:34:50;12.40;;;2.50;;
74995;SDS011;63545;51.690;5.202;2022-11-09T02:39:54;9.82;;;2.40;;
74995;SDS011;63545;51.690;5.202;2022-11-09T02:42:21;10.20;;;2.30;;
74995;SDS011;63545;51.690;5.202;2022-11-09T02:44:48;9.65;;;2.15;;
74995;SDS011;63545;51.690;5.202;2022-11-09T02:47:16;10.40;;;2.23;;
74995;SDS011;63545;51.690;5.202;2022-11-09T02:49:42;10.77;;;2.30;;
74995;SDS011;63545;51.690;5.202;2022-11-09T02:52:07;7.33;;;2.20;;
74995;SDS011;63545;51.690;5.202;2022-11-09T02:54:32;8.87;;;2.23;;
74995;SDS011;63545;51.690;5.202;2022-11-09T02:56:58;10.70;;;2.40;;
74995;SDS011;63545;51.690;5.202;2022-11-09T02:59:23;10.32;;;2.35;;
74995;SDS011;63545;51.690;5.202;2022-11-09T03:01:49;9.33;;;2.10;;
74995;SDS011;63545;51.690;5.202;2022-11-09T03:04:14;10.43;;;2.20;;
74995;SDS011;63545;51.690;5.202;2022-11-09T03:06:39;9.93;;;2.27;;
74995;SDS011;63545;51.690;5.202;2022-11-09T03:09:06;10.83;;;2.40;;
74995;SDS011;63545;51.690;5.202;2022-11-09T03:11:35;12.35;;;2.63;;
74995;SDS011;63545;51.690;5.202;2022-11-09T03:14:02;9.80;;;1.88;;
74995;SDS011;63545;51.690;5.202;2022-11-09T03:16:27;8.30;;;1.80;;
74995;SDS011;63545;51.690;5.202;2022-11-09T03:18:53;7.65;;;2.10;;
74995;SDS011;63545;51.690;5.202;2022-11-09T03:21:19;6.63;;;2.00;;
74995;SDS011;63545;51.690;5.202;2022-11-09T03:23:46;13.80;;;2.10;;
74995;SDS011;63545;51.690;5.202;2022-11-09T03:26:12;12.63;;;2.65;;
74995;SDS011;63545;51.690;5.202;2022-11-09T03:28:37;9.13;;;1.80;;
74995;SDS011;63545;51.690;5.202;2022-11-09T03:31:03;10.13;;;2.07;;
74995;SDS011;63545;51.690;5.202;2022-11-09T03:33:28;8.10;;;1.90;;
74995;SDS011;63545;51.690;5.202;2022-11-09T03:35:54;7.67;;;2.00;;
74995;SDS011;63545;51.690;5.202;2022-11-09T03:38:19;9.53;;;2.40;;
74995;SDS011;63545;51.690;5.202;2022-11-09T03:40:44;10.63;;;2.00;;
74995;SDS011;63545;51.690;5.202;2022-11-09T03:43:10;7.80;;;1.97;;
74995;SDS011;63545;51.690;5.202;2022-11-09T03:45:35;11.63;;;2.40;;
74995;SDS011;63545;51.690;5.202;2022-11-09T03:48:00;11.95;;;2.28;;
74995;SDS011;63545;51.690;5.202;2022-11-09T03:50:27;7.83;;;1.70;;
74995;SDS011;63545;51.690;5.202;2022-11-09T03:52:53;10.85;;;2.10;;
74995;SDS011;63545;51.690;5.202;2022-11-09T03:55:18;8.10;;;1.90;;
74995;SDS011;63545;51.690;5.202;2022-11-09T03:57:44;12.03;;;2.10;;
74995;SDS011;63545;51.690;5.202;2022-11-09T04:00:10;16.95;;;2.55;;
74995;SDS011;63545;51.690;5.202;2022-11-09T04:02:37;11.80;;;2.47;;
74995;SDS011;63545;51.690;5.202;2022-11-09T04:05:02;12.10;;;1.90;;
74995;SDS011;63545;51.690;5.202;2022-11-09T04:07:28;13.38;;;2.00;;
74995;SDS011;63545;51.690;5.202;2022-11-09T04:09:53;12.57;;;2.50;;
74995;SDS011;63545;51.690;5.202;2022-11-09T04:12:19;12.37;;;1.93;;
74995;SDS011;63545;51.690;5.202;2022-11-09T04:14:44;11.63;;;2.17;;
74995;SDS011;63545;51.690;5.202;2022-11-09T04:17:09;11.47;;;2.23;;
74995;SDS011;63545;51.690;5.202;2022-11-09T04:19:35;17.27;;;2.50;;
74995;SDS011;63545;51.690;5.202;2022-11-09T04:22:00;11.17;;;2.33;;
74995;SDS011;63545;51.690;5.202;2022-11-09T04:24:25;12.33;;;2.10;;
74995;SDS011;63545;51.690;5.202;2022-11-09T04:26:51;12.50;;;2.10;;
74995;SDS011;63545;51.690;5.202;2022-11-09T04:29:16;12.60;;;2.17;;
74995;SDS011;63545;51.690;5.202;2022-11-09T04:31:41;11.97;;;2.40;;
74995;SDS011;63545;51.690;5.202;2022-11-09T04:34:07;11.50;;;2.40;;
74995;SDS011;63545;51.690;5.202;2022-11-09T04:36:32;13.83;;;2.50;;
74995;SDS011;63545;51.690;5.202;2022-11-09T04:38:57;15.07;;;2.53;;
74995;SDS011;63545;51.690;5.202;2022-11-09T04:41:22;11.90;;;2.50;;
74995;SDS011;63545;51.690;5.202;2022-11-09T04:43:48;14.03;;;2.93;;
74995;SDS011;63545;51.690;5.202;2022-11-09T04:46:13;15.67;;;2.80;;
74995;SDS011;63545;51.690;5.202;2022-11-09T04:48:38;12.88;;;3.05;;
74995;SDS011;63545;51.690;5.202;2022-11-09T04:51:05;14.40;;;3.40;;
74995;SDS011;63545;51.690;5.202;2022-11-09T04:53:31;17.02;;;3.22;;
74995;SDS011;63545;51.690;5.202;2022-11-09T04:55:57;13.53;;;3.07;;
74995;SDS011;63545;51.690;5.202;2022-11-09T04:58:23;15.57;;;3.10;;
74995;SDS011;63545;51.690;5.202;2022-11-09T05:00:49;11.13;;;2.73;;
74995;SDS011;63545;51.690;5.202;2022-11-09T05:03:14;14.17;;;2.70;;
74995;SDS011;63545;51.690;5.202;2022-11-09T05:05:39;14.68;;;3.22;;
74995;SDS011;63545;51.690;5.202;2022-11-09T05:08:06;11.77;;;2.90;;
74995;SDS011;63545;51.690;5.202;2022-11-09T05:10:31;15.13;;;3.00;;
74995;SDS011;63545;51.690;5.202;2022-11-09T05:12:57;16.20;;;3.20;;
74995;SDS011;63545;51.690;5.202;2022-11-09T05:15:33;12.75;;;2.67;;
74995;SDS011;63545;51.690;5.202;2022-11-09T05:17:59;16.38;;;2.67;;
74995;SDS011;63545;51.690;5.202;2022-11-09T05:20:25;15.60;;;3.33;;
74995;SDS011;63545;51.690;5.202;2022-11-09T05:22:51;11.17;;;2.97;;
74995;SDS011;63545;51.690;5.202;2022-11-09T05:25:35;13.73;;;2.85;;
74995;SDS011;63545;51.690;5.202;2022-11-09T05:28:00;18.13;;;3.07;;
74995;SDS011;63545;51.690;5.202;2022-11-09T05:30:26;16.87;;;3.13;;
74995;SDS011;63545;51.690;5.202;2022-11-09T05:32:51;13.35;;;2.80;;
74995;SDS011;63545;51.690;5.202;2022-11-09T05:35:17;14.13;;;2.90;;
74995;SDS011;63545;51.690;5.202;2022-11-09T05:37:45;10.73;;;2.60;;
74995;SDS011;63545;51.690;5.202;2022-11-09T05:40:12;12.18;;;2.90;;
74995;SDS011;63545;51.690;5.202;2022-11-09T05:42:38;13.73;;;2.77;;
74995;SDS011;63545;51.690;5.202;2022-11-09T05:45:04;14.73;;;3.42;;
74995;SDS011;63545;51.690;5.202;2022-11-09T05:47:35;14.65;;;2.75;;
74995;SDS011;63545;51.690;5.202;2022-11-09T05:50:01;15.73;;;3.33;;
74995;SDS011;63545;51.690;5.202;2022-11-09T05:52:26;13.57;;;2.93;;
74995;SDS011;63545;51.690;5.202;2022-11-09T05:54:51;14.07;;;3.03;;
74995;SDS011;63545;51.690;5.202;2022-11-09T05:57:17;13.17;;;2.47;;
74995;SDS011;63545;51.690;5.202;2022-11-09T05:59:42;16.20;;;3.07;;
74995;SDS011;63545;51.690;5.202;2022-11-09T06:02:07;16.30;;;3.57;;
74995;SDS011;63545;51.690;5.202;2022-11-09T06:04:33;14.60;;;2.60;;
74995;SDS011;63545;51.690;5.202;2022-11-09T06:06:58;12.47;;;3.20;;
74995;SDS011;63545;51.690;5.202;2022-11-09T06:09:23;16.63;;;3.50;;
74995;SDS011;63545;51.690;5.202;2022-11-09T06:11:49;16.90;;;3.20;;
74995;SDS011;63545;51.690;5.202;2022-11-09T06:14:14;14.65;;;2.92;;
74995;SDS011;63545;51.690;5.202;2022-11-09T06:16:40;13.23;;;3.00;;
74995;SDS011;63545;51.690;5.202;2022-11-09T06:19:05;14.23;;;3.10;;
74995;SDS011;63545;51.690;5.202;2022-11-09T06:21:31;11.70;;;2.63;;
74995;SDS011;63545;51.690;5.202;2022-11-09T06:23:56;14.33;;;3.33;;
74995;SDS011;63545;51.690;5.202;2022-11-09T06:26:21;14.17;;;2.77;;
74995;SDS011;63545;51.690;5.202;2022-11-09T06:28:46;15.13;;;2.90;;
74995;SDS011;63545;51.690;5.202;2022-11-09T06:31:14;17.57;;;3.50;;
74995;SDS011;63545;51.690;5.202;2022-11-09T06:33:40;14.48;;;2.70;;
74995;SDS011;63545;51.690;5.202;2022-11-09T06:36:05;12.90;;;2.87;;
74995;SDS011;63545;51.690;5.202;2022-11-09T06:38:31;13.05;;;2.72;;
74995;SDS011;63545;51.690;5.202;2022-11-09T06:40:56;15.90;;;2.70;;
74995;SDS011;63545;51.690;5.202;2022-11-09T06:43:23;17.05;;;3.38;;
74995;SDS011;63545;51.690;5.202;2022-11-09T06:45:49;15.03;;;2.77;;
74995;SDS011;63545;51.690;5.202;2022-11-09T06:48:14;13.93;;;2.73;;
74995;SDS011;63545;51.690;5.202;2022-11-09T06:50:40;15.43;;;2.73;;
74995;SDS011;63545;51.690;5.202;2022-11-09T06:53:08;11.70;;;2.38;;
74995;SDS011;63545;51.690;5.202;2022-11-09T06:55:35;12.43;;;2.73;;
74995;SDS011;63545;51.690;5.202;2022-11-09T06:58:04;17.73;;;3.15;;
74995;SDS011;63545;51.690;5.202;2022-11-09T07:00:31;12.77;;;2.92;;
74995;SDS011;63545;51.690;5.202;2022-11-09T07:02:56;16.67;;;2.73;;
74995;SDS011;63545;51.690;5.202;2022-11-09T07:05:22;12.50;;;2.63;;
74995;SDS011;63545;51.690;5.202;2022-11-09T07:07:47;13.98;;;2.72;;
74995;SDS011;63545;51.690;5.202;2022-11-09T07:10:12;13.77;;;2.87;;
74995;SDS011;63545;51.690;5.202;2022-11-09T07:12:38;12.83;;;2.50;;
74995;SDS011;63545;51.690;5.202;2022-11-09T07:15:03;14.67;;;3.40;;
74995;SDS011;63545;51.690;5.202;2022-11-09T07:17:32;13.02;;;2.80;;
74995;SDS011;63545;51.690;5.202;2022-11-09T07:19:58;10.50;;;2.60;;
74995;SDS011;63545;51.690;5.202;2022-11-09T07:22:25;12.23;;;3.03;;
74995;SDS011;63545;51.690;5.202;2022-11-09T07:24:51;13.50;;;2.78;;
74995;SDS011;63545;51.690;5.202;2022-11-09T07:27:16;11.37;;;2.80;;
74995;SDS011;63545;51.690;5.202;2022-11-09T07:29:42;10.30;;;2.73;;
74995;SDS011;63545;51.690;5.202;2022-11-09T07:32:07;14.13;;;2.80;;
74995;SDS011;63545;51.690;5.202;2022-11-09T07:34:32;11.30;;;2.40;;
74995;SDS011;63545;51.690;5.202;2022-11-09T07:36:58;11.03;;;2.80;;
74995;SDS011;63545;51.690;5.202;2022-11-09T07:39:23;16.30;;;2.57;;
74995;SDS011;63545;51.690;5.202;2022-11-09T07:41:48;12.18;;;2.60;;
74995;SDS011;63545;51.690;5.202;2022-11-09T07:44:14;14.10;;;2.73;;
74995;SDS011;63545;51.690;5.202;2022-11-09T07:46:51;12.23;;;2.80;;
74995;SDS011;63545;51.690;5.202;2022-11-09T07:49:16;13.80;;;2.70;;
74995;SDS011;63545;51.690;5.202;2022-11-09T07:51:42;13.35;;;3.10;;
74995;SDS011;63545;51.690;5.202;2022-11-09T07:54:07;12.73;;;2.63;;
74995;SDS011;63545;51.690;5.202;2022-11-09T07:56:33;15.00;;;2.53;;
74995;SDS011;63545;51.690;5.202;2022-11-09T07:58:58;14.03;;;2.97;;
74995;SDS011;63545;51.690;5.202;2022-11-09T08:01:24;19.30;;;3.13;;
74995;SDS011;63545;51.690;5.202;2022-11-09T08:03:49;10.43;;;1.83;;
74995;SDS011;63545;51.690;5.202;2022-11-09T08:06:14;12.33;;;2.70;;
74995;SDS011;63545;51.690;5.202;2022-11-09T08:08:40;14.05;;;2.78;;
74995;SDS011;63545;51.690;5.202;2022-11-09T08:11:05;13.87;;;2.70;;
74995;SDS011;63545;51.690;5.202;2022-11-09T08:13:31;11.40;;;2.83;;
74995;SDS011;63545;51.690;5.202;2022-11-09T08:15:59;12.60;;;2.67;;
74995;SDS011;63545;51.690;5.202;2022-11-09T08:18:25;7.65;;;2.08;;
74995;SDS011;63545;51.690;5.202;2022-11-09T08:20:50;16.67;;;2.90;;
74995;SDS011;63545;51.690;5.202;2022-11-09T08:23:16;15.77;;;2.90;;
74995;SDS011;63545;51.690;5.202;2022-11-09T08:25:42;14.88;;;2.78;;
74995;SDS011;63545;51.690;5.202;2022-11-09T08:28:09;15.52;;;2.95;;
74995;SDS011;63545;51.690;5.202;2022-11-09T08:30:34;11.73;;;2.60;;
74995;SDS011;63545;51.690;5.202;2022-11-09T08:33:00;16.53;;;3.13;;
74995;SDS011;63545;51.690;5.202;2022-11-09T08:35:27;11.95;;;2.53;;
74995;SDS011;63545;51.690;5.202;2022-11-09T08:37:53;10.68;;;3.05;;
74995;SDS011;63545;51.690;5.202;2022-11-09T08:40:22;8.13;;;2.00;;
74995;SDS011;63545;51.690;5.202;2022-11-09T08:42:49;14.00;;;3.30;;
74995;SDS011;63545;51.690;5.202;2022-11-09T08:45:15;10.93;;;3.00;;
74995;SDS011;63545;51.690;5.202;2022-11-09T08:47:41;12.55;;;3.35;;
74995;SDS011;63545;51.690;5.202;2022-11-09T08:50:07;15.60;;;3.00;;
74995;SDS011;63545;51.690;5.202;2022-11-09T08:52:33;9.97;;;3.10;;
74995;SDS011;63545;51.690;5.202;2022-11-09T08:54:58;16.58;;;3.50;;
74995;SDS011;63545;51.690;5.202;2022-11-09T08:57:24;22.10;;;4.03;;
74995;SDS011;63545;51.690;5.202;2022-11-09T08:59:49;17.07;;;3.43;;
74995;SDS011;63545;51.690;5.202;2022-11-09T09:02:15;16.23;;;3.10;;
74995;SDS011;63545;51.690;5.202;2022-11-09T09:04:40;14.52;;;3.50;;
74995;SDS011;63545;51.690;5.202;2022-11-09T09:07:06;14.30;;;2.97;;
74995;SDS011;63545;51.690;5.202;2022-11-09T09:09:31;12.40;;;3.33;;
74995;SDS011;63545;51.690;5.202;2022-11-09T09:11:57;13.32;;;3.03;;
74995;SDS011;63545;51.690;5.202;2022-11-09T09:14:23;19.60;;;3.73;;
74995;SDS011;63545;51.690;5.202;2022-11-09T09:16:49;12.07;;;2.92;;
74995;SDS011;63545;51.690;5.202;2022-11-09T09:19:14;13.23;;;3.00;;
74995;SDS011;63545;51.690;5.202;2022-11-09T09:21:39;14.57;;;3.67;;
74995;SDS011;63545;51.690;5.202;2022-11-09T09:24:05;12.43;;;3.07;;
74995;SDS011;63545;51.690;5.202;2022-11-09T09:26:30;13.02;;;2.80;;
74995;SDS011;63545;51.690;5.202;2022-11-09T09:28:55;13.70;;;3.17;;
74995;SDS011;63545;51.690;5.202;2022-11-09T09:31:21;13.77;;;3.33;;
74995;SDS011;63545;51.690;5.202;2022-11-09T09:33:46;12.75;;;3.10;;
74995;SDS011;63545;51.690;5.202;2022-11-09T09:36:16;15.53;;;3.27;;
74995;SDS011;63545;51.690;5.202;2022-11-09T09:38:42;15.80;;;3.10;;
74995;SDS011;63545;51.690;5.202;2022-11-09T09:41:07;18.20;;;3.17;;
74995;SDS011;63545;51.690;5.202;2022-11-09T09:43:48;13.37;;;2.87;;
74995;SDS011;63545;51.690;5.202;2022-11-09T09:46:20;10.57;;;2.60;;
74995;SDS011;63545;51.690;5.202;2022-11-09T09:48:56;11.00;;;2.67;;
74995;SDS011;63545;51.690;5.202;2022-11-09T09:54:24;12.50;;;3.03;;
74995;SDS011;63545;51.690;5.202;2022-11-09T09:56:52;11.17;;;2.30;;
74995;SDS011;63545;51.690;5.202;2022-11-09T10:02:25;16.70;;;2.70;;
74995;SDS011;63545;51.690;5.202;2022-11-09T10:04:53;11.52;;;2.30;;
74995;SDS011;63545;51.690;5.202;2022-11-09T10:15:05;12.27;;;2.50;;
74995;SDS011;63545;51.690;5.202;2022-11-09T10:17:43;13.68;;;2.38;;
74995;SDS011;63545;51.690;5.202;2022-11-09T10:26:01;8.50;;;2.20;;
74995;SDS011;63545;51.690;5.202;2022-11-09T10:28:48;11.13;;;2.20;;
74995;SDS011;63545;51.690;5.202;2022-11-09T10:31:18;10.73;;;2.25;;
74995;SDS011;63545;51.690;5.202;2022-11-09T10:33:46;11.38;;;2.45;;
74995;SDS011;63545;51.690;5.202;2022-11-09T10:36:17;9.48;;;2.45;;
74995;SDS011;63545;51.690;5.202;2022-11-09T10:38:48;11.40;;;2.45;;
74995;SDS011;63545;51.690;5.202;2022-11-09T10:44:13;12.35;;;2.40;;
74995;SDS011;63545;51.690;5.202;2022-11-09T10:49:27;12.73;;;2.10;;
74995;SDS011;63545;51.690;5.202;2022-11-09T10:51:53;9.53;;;2.33;;
74995;SDS011;63545;51.690;5.202;2022-11-09T10:54:19;12.93;;;2.47;;
74995;SDS011;63545;51.690;5.202;2022-11-09T10:56:50;11.63;;;2.55;;
74995;SDS011;63545;51.690;5.202;2022-11-09T11:04:50;9.97;;;2.20;;
74995;SDS011;63545;51.690;5.202;2022-11-09T11:07:20;14.95;;;2.20;;
74995;SDS011;63545;51.690;5.202;2022-11-09T11:09:46;12.32;;;2.38;;
74995;SDS011;63545;51.690;5.202;2022-11-09T11:12:14;12.00;;;2.83;;
74995;SDS011;63545;51.690;5.202;2022-11-09T11:14:41;10.63;;;2.42;;
74995;SDS011;63545;51.690;5.202;2022-11-09T11:17:35;12.82;;;2.80;;
74995;SDS011;63545;51.690;5.202;2022-11-09T11:20:16;10.80;;;2.22;;
74995;SDS011;63545;51.690;5.202;2022-11-09T11:25:33;10.40;;;2.40;;
74995;SDS011;63545;51.690;5.202;2022-11-09T11:28:15;8.07;;;2.70;;
74995;SDS011;63545;51.690;5.202;2022-11-09T11:30:44;7.93;;;2.55;;
74995;SDS011;63545;51.690;5.202;2022-11-09T11:33:13;9.50;;;2.53;;
74995;SDS011;63545;51.690;5.202;2022-11-09T11:35:55;11.35;;;2.67;;
74995;SDS011;63545;51.690;5.202;2022-11-09T11:46:45;10.15;;;2.55;;
74995;SDS011;63545;51.690;5.202;2022-11-09T11:55:12;6.93;;;2.17;;
74995;SDS011;63545;51.690;5.202;2022-11-09T12:00:58;8.52;;;2.47;;
74995;SDS011;63545;51.690;5.202;2022-11-09T12:03:49;8.07;;;2.30;;
74995;SDS011;63545;51.690;5.202;2022-11-09T12:14:38;11.00;;;2.50;;
74995;SDS011;63545;51.690;5.202;2022-11-09T12:17:24;7.95;;;2.08;;
74995;SDS011;63545;51.690;5.202;2022-11-09T12:23:40;11.20;;;2.20;;
74995;SDS011;63545;51.690;5.202;2022-11-09T12:28:21;9.63;;;2.22;;
74995;SDS011;63545;51.690;5.202;2022-11-09T12:31:40;10.38;;;2.13;;
74995;SDS011;63545;51.690;5.202;2022-11-09T12:33:58;11.48;;;2.15;;
74995;SDS011;63545;51.690;5.202;2022-11-09T12:37:23;7.73;;;2.07;;
74995;SDS011;63545;51.690;5.202;2022-11-09T12:39:34;13.85;;;2.00;;
74995;SDS011;63545;51.690;5.202;2022-11-09T12:42:20;6.13;;;1.70;;
74995;SDS011;63545;51.690;5.202;2022-11-09T12:47:29;7.55;;;1.80;;
74995;SDS011;63545;51.690;5.202;2022-11-09T12:49:59;8.53;;;2.20;;
74995;SDS011;63545;51.690;5.202;2022-11-09T12:52:27;8.02;;;1.83;;
74995;SDS011;63545;51.690;5.202;2022-11-09T12:54:53;7.55;;;1.70;;
74995;SDS011;63545;51.690;5.202;2022-11-09T12:57:23;11.87;;;1.60;;
74995;SDS011;63545;51.690;5.202;2022-11-09T12:59:50;7.90;;;1.88;;
74995;SDS011;63545;51.690;5.202;2022-11-09T13:02:26;5.22;;;1.58;;
74995;SDS011;63545;51.690;5.202;2022-11-09T13:05:05;7.80;;;2.00;;
74995;SDS011;63545;51.690;5.202;2022-11-09T13:10:24;6.38;;;1.48;;
74995;SDS011;63545;51.690;5.202;2022-11-09T13:13:13;6.80;;;1.70;;
74995;SDS011;63545;51.690;5.202;2022-11-09T13:16:02;8.10;;;1.52;;
74995;SDS011;63545;51.690;5.202;2022-11-09T13:21:29;6.57;;;1.50;;
74995;SDS011;63545;51.690;5.202;2022-11-09T13:23:49;9.20;;;1.85;;
74995;SDS011;63545;51.690;5.202;2022-11-09T13:34:40;6.37;;;1.90;;
74995;SDS011;63545;51.690;5.202;2022-11-09T13:45:40;10.40;;;1.70;;
74995;SDS011;63545;51.690;5.202;2022-11-09T13:48:19;6.13;;;1.67;;
74995;SDS011;63545;51.690;5.202;2022-11-09T13:51:13;8.18;;;2.05;;
74995;SDS011;63545;51.690;5.202;2022-11-09T13:53:47;5.53;;;1.73;;
74995;SDS011;63545;51.690;5.202;2022-11-09T13:58:55;8.95;;;1.80;;
74995;SDS011;63545;51.690;5.202;2022-11-09T14:01:30;4.87;;;1.27;;
74995;SDS011;63545;51.690;5.202;2022-11-09T14:03:58;10.07;;;1.92;;
74995;SDS011;63545;51.690;5.202;2022-11-09T14:06:26;7.10;;;1.90;;
74995;SDS011;63545;51.690;5.202;2022-11-09T14:08:52;7.15;;;1.90;;
74995;SDS011;63545;51.690;5.202;2022-11-09T14:11:22;7.10;;;1.60;;
74995;SDS011;63545;51.690;5.202;2022-11-09T14:13:59;8.95;;;1.98;;
74995;SDS011;63545;51.690;5.202;2022-11-09T14:19:06;8.10;;;1.85;;
74995;SDS011;63545;51.690;5.202;2022-11-09T14:21:53;9.60;;;1.87;;
74995;SDS011;63545;51.690;5.202;2022-11-09T14:24:25;7.57;;;1.83;;
74995;SDS011;63545;51.690;5.202;2022-11-09T14:29:32;7.10;;;1.70;;
74995;SDS011;63545;51.690;5.202;2022-11-09T14:32:13;9.82;;;1.70;;
74995;SDS011;63545;51.690;5.202;2022-11-09T14:34:45;7.63;;;2.10;;
74995;SDS011;63545;51.690;5.202;2022-11-09T14:37:12;5.07;;;1.47;;
74995;SDS011;63545;51.690;5.202;2022-11-09T14:39:38;6.15;;;1.60;;
74995;SDS011;63545;51.690;5.202;2022-11-09T14:42:04;9.23;;;1.87;;
74995;SDS011;63545;51.690;5.202;2022-11-09T14:44:40;6.38;;;1.67;;
74995;SDS011;63545;51.690;5.202;2022-11-09T14:47:13;6.68;;;1.60;;
74995;SDS011;63545;51.690;5.202;2022-11-09T14:49:40;8.15;;;2.00;;
74995;SDS011;63545;51.690;5.202;2022-11-09T14:52:07;6.63;;;1.97;;
74995;SDS011;63545;51.690;5.202;2022-11-09T14:54:35;7.80;;;2.10;;
74995;SDS011;63545;51.690;5.202;2022-11-09T14:57:00;7.67;;;2.10;;
74995;SDS011;63545;51.690;5.202;2022-11-09T14:59:30;7.67;;;1.80;;
74995;SDS011;63545;51.690;5.202;2022-11-09T15:01:57;8.50;;;2.05;;
74995;SDS011;63545;51.690;5.202;2022-11-09T15:04:24;8.88;;;1.70;;
74995;SDS011;63545;51.690;5.202;2022-11-09T15:06:55;9.52;;;1.88;;
74995;SDS011;63545;51.690;5.202;2022-11-09T15:09:43;5.67;;;1.70;;
74995;SDS011;63545;51.690;5.202;2022-11-09T15:12:12;13.52;;;2.00;;
74995;SDS011;63545;51.690;5.202;2022-11-09T15:14:40;7.18;;;2.00;;
74995;SDS011;63545;51.690;5.202;2022-11-09T15:17:14;6.60;;;1.75;;
74995;SDS011;63545;51.690;5.202;2022-11-09T15:19:49;7.80;;;1.90;;
74995;SDS011;63545;51.690;5.202;2022-11-09T15:25:29;6.05;;;1.80;;
74995;SDS011;63545;51.690;5.202;2022-11-09T15:32:59;6.63;;;1.80;;
74995;SDS011;63545;51.690;5.202;2022-11-09T15:35:25;9.53;;;2.23;;
74995;SDS011;63545;51.690;5.202;2022-11-09T15:37:51;8.45;;;1.90;;
74995;SDS011;63545;51.690;5.202;2022-11-09T15:40:22;9.90;;;1.77;;
74995;SDS011;63545;51.690;5.202;2022-11-09T15:42:48;7.97;;;1.90;;
74995;SDS011;63545;51.690;5.202;2022-11-09T15:45:14;15.73;;;2.30;;
74995;SDS011;63545;51.690;5.202;2022-11-09T15:47:47;5.78;;;1.63;;
74995;SDS011;63545;51.690;5.202;2022-11-09T15:50:21;7.65;;;1.75;;
74995;SDS011;63545;51.690;5.202;2022-11-09T15:52:49;9.43;;;2.28;;
74995;SDS011;63545;51.690;5.202;2022-11-09T15:55:16;7.25;;;2.30;;
74995;SDS011;63545;51.690;5.202;2022-11-09T15:57:47;7.47;;;2.00;;
74995;SDS011;63545;51.690;5.202;2022-11-09T16:00:14;11.27;;;2.30;;
74995;SDS011;63545;51.690;5.202;2022-11-09T16:02:40;7.07;;;2.15;;
74995;SDS011;63545;51.690;5.202;2022-11-09T16:05:06;12.10;;;2.20;;
74995;SDS011;63545;51.690;5.202;2022-11-09T16:07:32;9.52;;;2.10;;
74995;SDS011;63545;51.690;5.202;2022-11-09T16:09:57;8.67;;;1.90;;
74995;SDS011;63545;51.690;5.202;2022-11-09T16:12:22;7.30;;;2.53;;
74995;SDS011;63545;51.690;5.202;2022-11-09T16:14:48;10.00;;;2.00;;
74995;SDS011;63545;51.690;5.202;2022-11-09T16:17:13;9.03;;;2.23;;
74995;SDS011;63545;51.690;5.202;2022-11-09T16:19:38;8.40;;;2.13;;
74995;SDS011;63545;51.690;5.202;2022-11-09T16:22:06;5.88;;;1.70;;
74995;SDS011;63545;51.690;5.202;2022-11-09T16:24:32;7.45;;;2.42;;
74995;SDS011;63545;51.690;5.202;2022-11-09T16:26:57;8.00;;;2.30;;
74995;SDS011;63545;51.690;5.202;2022-11-09T16:29:27;10.03;;;2.40;;
74995;SDS011;63545;51.690;5.202;2022-11-09T16:31:53;11.13;;;2.47;;
74995;SDS011;63545;51.690;5.202;2022-11-09T16:34:18;9.50;;;2.20;;